createdAt,value
2022-11-09T00:05:16.038Z,0.00
2022-11-09T00:10:47.809Z,0.00
2022-11-09T00:21:51.856Z,0.00
2022-11-09T00:27:23.440Z,0.00
2022-11-09T00:32:55.241Z,0.00
2022-11-09T00:44:00.634Z,1.00
2022-11-09T00:49:34.998Z,0.00
2022-11-09T00:55:12.628Z,0.00
2022-11-09T01:00:44.172Z,0.00
2022-11-09T01:06:16.058Z,1.00
2022-11-09T01:22:51.260Z,0.00
2022-11-09T01:28:22.971Z,0.00
2022-11-09T01:39:26.579Z,0.00
2022-11-09T01:45:05.287Z,0.00
2022-11-09T01:50:42.836Z,0.00
2022-11-09T01:56:14.624Z,0.00
2022-11-09T02:01:48.125Z,0.00
2022-11-09T02:07:19.829Z,0.00
2022-11-09T02:12:57.251Z,0.00
2022-11-09T02:18:35.348Z,0.00
2022-11-09T02:24:13.225Z,0.00
2022-11-09T02:29:50.955Z,0.00
2022-11-09T02:35:22.785Z,0.00
2022-11-09T02:40:54.563Z,0.00
2022-11-09T02:46:26.436Z,1.00
2022-11-09T02:52:04.112Z,0.00
2022-11-09T02:57:35.674Z,1.00
2022-11-09T03:03:07.442Z,0.00
2022-11-09T03:08:39.238Z,0.00
2022-11-09T03:14:11.072Z,0.00
2022-11-09T03:19:42.848Z,0.00
2022-11-09T03:25:14.617Z,0.00
2022-11-09T03:30:46.816Z,0.00
2022-11-09T03:36:18.845Z,0.00
2022-11-09T03:41:50.532Z,0.00
2022-11-09T03:47:22.618Z,0.00
2022-11-09T03:53:00.368Z,0.00
2022-11-09T03:58:38.242Z,0.00
2022-11-09T04:04:10.333Z,0.00
2022-11-09T04:09:47.894Z,0.00
2022-11-09T04:15:19.824Z,0.00
2022-11-09T04:20:51.815Z,0.00
2022-11-09T04:26:24.024Z,0.00
2022-11-09T04:31:56.063Z,1.00
2022-11-09T04:37:33.821Z,0.00
2022-11-09T04:43:05.572Z,1.00
2022-11-09T04:48:37.457Z,0.00
2022-11-09T04:54:09.263Z,1.00
2022-11-09T04:59:46.951Z,0.00
2022-11-09T05:05:24.576Z,0.00
2022-11-09T05:10:58.417Z,0.00
2022-11-09T05:16:36.363Z,1.00
2022-11-09T05:22:08.299Z,1.00
2022-11-09T05:27:40.111Z,2.00
2022-11-09T05:33:11.624Z,3.00
2022-11-09T05:38:43.416Z,8.00
2022-11-09T05:44:21.142Z,20.00
2022-11-09T05:49:59.014Z,50.00
2022-11-09T05:55:36.719Z,165.00
2022-11-09T06:01:14.116Z,256.00
2022-11-09T06:06:51.627Z,226.00
2022-11-09T06:12:23.772Z,319.00
2022-11-09T06:18:01.101Z,729.00
2022-11-09T06:23:32.842Z,1610.00
2022-11-09T06:29:04.344Z,2682.00
2022-11-09T06:34:36.047Z,6573.00
2022-11-09T06:40:07.679Z,7195.00
2022-11-09T06:45:39.513Z,22012.00
2022-11-09T06:51:17.185Z,23689.00
2022-11-09T06:56:48.907Z,18944.00
2022-11-09T07:02:20.786Z,5983.00
2022-11-09T07:07:52.662Z,8299.00
2022-11-09T07:10:16.232Z,7361.00
2022-11-09T07:15:53.564Z,5374.00
2022-11-09T07:21:31.561Z,5823.00
2022-11-09T07:27:09.086Z,6330.00
2022-11-09T07:33:07.354Z,7097.00
2022-11-09T07:38:12.555Z,9210.00
2022-11-09T07:43:46.567Z,12144.00
2022-11-09T07:49:18.334Z,15426.00
2022-11-09T07:54:52.333Z,13531.00
2022-11-09T08:00:23.756Z,15887.00
2022-11-09T08:05:54.130Z,13037.00
2022-11-09T08:11:25.570Z,11369.00
2022-11-09T08:16:57.926Z,9047.00
2022-11-09T08:22:29.798Z,7442.00
2022-11-09T08:28:01.398Z,5969.00
2022-11-09T08:33:33.239Z,6082.00
2022-11-09T08:39:05.554Z,7298.00
2022-11-09T08:44:37.418Z,8452.00
2022-11-09T08:50:09.332Z,9210.00
2022-11-09T08:55:43.792Z,9339.00
2022-11-09T09:01:16.892Z,8815.00
2022-11-09T09:06:45.344Z,7477.00
2022-11-09T09:12:16.886Z,7575.00
2022-11-09T09:17:49.360Z,8410.00
2022-11-09T09:23:22.005Z,9959.00
2022-11-09T09:28:53.852Z,9979.00
2022-11-09T09:34:25.705Z,9950.00
2022-11-09T09:39:58.038Z,9540.00
2022-11-09T09:45:30.050Z,9449.00
2022-11-09T09:51:02.211Z,9949.00
2022-11-09T09:56:34.148Z,11452.00
2022-11-09T10:02:06.492Z,13920.00
2022-11-09T10:07:38.723Z,13511.00
2022-11-09T10:13:10.715Z,12553.00
2022-11-09T10:18:42.994Z,11115.00
2022-11-09T10:24:15.152Z,11520.00
2022-11-09T10:35:17.363Z,12170.00
2022-11-09T10:40:49.782Z,11677.00
2022-11-09T10:46:21.800Z,11144.00
2022-11-09T10:51:54.124Z,9600.00
2022-11-09T10:57:26.541Z,8934.00
2022-11-09T11:02:58.666Z,9678.00
2022-11-09T11:08:30.957Z,10837.00
2022-11-09T11:14:02.913Z,10610.00
2022-11-09T11:19:35.256Z,10027.00
2022-11-09T11:30:37.037Z,12805.00
2022-11-09T11:41:38.706Z,11545.00
2022-11-09T11:47:10.614Z,12207.00
2022-11-09T11:52:42.949Z,12336.00
2022-11-09T11:58:15.093Z,11014.00
2022-11-09T12:03:50.575Z,10752.00
2022-11-09T12:09:19.636Z,10940.00
2022-11-09T12:14:51.761Z,11443.00
2022-11-09T12:20:23.625Z,11291.00
2022-11-09T12:25:55.822Z,10368.00
2022-11-09T12:31:28.410Z,10042.00
2022-11-09T12:37:00.409Z,9203.00
2022-11-09T12:42:32.834Z,8464.00
2022-11-09T12:48:05.151Z,7976.00
2022-11-09T12:53:37.484Z,8301.00
2022-11-09T12:59:09.598Z,8697.00
2022-11-09T13:04:41.460Z,8912.00
2022-11-09T13:10:13.550Z,8643.00
2022-11-09T13:15:45.220Z,8397.00
2022-11-09T13:21:17.400Z,8223.00
2022-11-09T13:26:49.718Z,7968.00
2022-11-09T13:32:21.923Z,7556.00
2022-11-09T13:37:53.626Z,7631.00
2022-11-09T13:43:25.764Z,7363.00
2022-11-09T13:48:57.893Z,7084.00
2022-11-09T13:54:29.756Z,6763.00
2022-11-09T14:00:01.752Z,6413.00
2022-11-09T14:05:33.615Z,5803.00
2022-11-09T14:11:05.737Z,5050.00
2022-11-09T14:16:37.713Z,4594.00
2022-11-09T14:22:09.972Z,4498.00
2022-11-09T14:27:41.889Z,3991.00
2022-11-09T14:33:13.859Z,3790.00
2022-11-09T14:38:46.014Z,3643.00
2022-11-09T14:44:18.321Z,3358.00
2022-11-09T14:49:51.091Z,3153.00
2022-11-09T14:55:23.473Z,3137.00
2022-11-09T15:00:55.744Z,2578.00
2022-11-09T15:06:27.600Z,1784.00
2022-11-09T15:11:59.406Z,1289.00
2022-11-09T15:17:31.405Z,997.00
2022-11-09T15:23:03.415Z,648.00
2022-11-09T15:28:35.402Z,398.00
2022-11-09T15:34:07.208Z,272.00
2022-11-09T15:39:38.736Z,160.00
2022-11-09T15:45:10.892Z,91.00
2022-11-09T15:50:42.909Z,59.00
2022-11-09T15:56:15.256Z,34.00
2022-11-09T16:01:47.094Z,15.00
2022-11-09T16:07:19.227Z,5.00
2022-11-09T16:12:51.444Z,2.00
2022-11-09T16:18:26.107Z,0.00
2022-11-09T16:23:58.661Z,0.00
2022-11-09T16:40:27.851Z,0.00
2022-11-09T16:46:00.037Z,1.00
2022-11-09T16:51:32.241Z,0.00
2022-11-09T16:57:04.407Z,3.00
2022-11-09T17:02:36.608Z,2.00
2022-11-09T17:08:08.788Z,3.00
2022-11-09T17:13:40.697Z,3.00
2022-11-09T17:19:12.774Z,3.00
2022-11-09T17:24:45.171Z,1.00
2022-11-09T17:30:18.042Z,1.00
2022-11-09T17:35:50.176Z,0.00
2022-11-09T17:41:22.214Z,0.00
2022-11-09T17:46:54.327Z,0.00
2022-11-09T17:52:26.705Z,0.00
2022-11-09T17:57:58.938Z,0.00
2022-11-09T18:03:31.338Z,3.00
2022-11-09T18:09:39.153Z,3.00
2022-11-09T18:14:35.274Z,3.00
2022-11-09T18:20:06.749Z,3.00
2022-11-09T18:25:38.732Z,3.00
2022-11-09T18:31:10.582Z,3.00
2022-11-09T18:36:42.337Z,3.00
2022-11-09T18:42:14.229Z,3.00
2022-11-09T18:47:46.385Z,3.00
2022-11-09T18:53:18.448Z,4.00
2022-11-09T18:58:50.439Z,3.00
2022-11-09T19:04:22.249Z,3.00
2022-11-09T19:09:56.675Z,3.00
2022-11-09T19:20:55.880Z,3.00
2022-11-09T19:26:28.218Z,3.00
2022-11-09T19:32:00.678Z,3.00
2022-11-09T19:37:32.931Z,3.00
2022-11-09T19:43:04.953Z,3.00
2022-11-09T19:48:36.757Z,3.00
2022-11-09T19:54:09.236Z,3.00
2022-11-09T19:59:41.349Z,3.00
2022-11-09T20:05:13.997Z,3.00
2022-11-09T20:10:45.819Z,3.00
2022-11-09T20:16:17.825Z,0.00
2022-11-09T20:21:51.352Z,1.00
2022-11-09T20:24:02.936Z,1.00
2022-11-09T20:29:34.768Z,0.00
2022-11-09T20:35:06.376Z,0.00
2022-11-09T20:40:38.534Z,0.00
2022-11-09T20:46:10.545Z,1.00
2022-11-09T20:51:42.732Z,1.00
2022-11-09T20:57:15.334Z,1.00
2022-11-09T21:02:46.815Z,0.00
2022-11-09T21:08:19.023Z,0.00
2022-11-09T21:13:50.693Z,1.00
2022-11-09T21:19:22.517Z,1.00
2022-11-09T21:24:54.212Z,0.00
2022-11-09T21:30:26.087Z,0.00
2022-11-09T21:35:58.295Z,0.00
2022-11-09T21:41:29.896Z,1.00
2022-11-09T21:47:01.954Z,1.00
2022-11-09T21:52:33.777Z,0.00
2022-11-09T21:58:05.799Z,1.00
2022-11-09T22:03:37.787Z,0.00
2022-11-09T22:09:09.285Z,1.00
2022-11-09T22:14:41.192Z,0.00
2022-11-09T22:20:12.764Z,0.00
2022-11-09T22:25:47.947Z,0.00
2022-11-09T22:31:16.507Z,0.00
2022-11-09T22:36:48.115Z,0.00
2022-11-09T22:42:20.371Z,0.00
2022-11-09T22:47:52.418Z,0.00
2022-11-09T22:53:24.366Z,0.00
2022-11-09T22:58:56.668Z,0.00
2022-11-09T23:04:28.884Z,0.00
2022-11-09T23:10:00.724Z,0.00
2022-11-09T23:15:33.400Z,0.00
2022-11-09T23:21:05.437Z,0.00
2022-11-09T23:26:37.155Z,0.00
2022-11-09T23:32:08.831Z,0.00
2022-11-09T23:37:40.521Z,1.00
2022-11-09T23:43:12.411Z,0.00
2022-11-09T23:48:44.057Z,1.00
2022-11-09T23:54:15.845Z,0.00
2022-11-09T23:59:47.548Z,0.00
